Iowa Park, Texas
Current Conditions -  °F | °C
As of 12:05 PM on Thursday 18 Dec 2014 (Local Time) from KSPS Reporting Station
Haze Haze  
Wind Chill: 46°   Ceiling: 500
Heat Index: 46°   Visibility: 2.5mi
Dew Point: 44°   Wind: 0mph
Humidity: 93%   Direction: NA
Pressure: 30.14"   Gusts: NA
Location:  33.95°N, 98.65°W
Report Text: KSPS 181805Z 00000KT 2 1/2SM BR OVC005 08/07 A3014 RMK AO2 T00780067
Loading
Personal Weather Stations






























Interactive Weather Map New forecast layout! Learn more

10-Day Weather Forecast

Advertisements
Track Severe Weather on mobile